Theodore Roosevelt National Park, ND

5:19 PM MST on January 28, 2015 (GMT -0700)
Dickinson Municipal | Change Station
CLOSE
Current Station
Airport
Location: Dickinson,
Elevation: 2592 ft
Nearby Weather Stations

Elev 2592 ft 46.80 °N, 102.80 °W | Updated 23 minutes ago

Overcast
Overcast
32 °F
Feels Like 18 °F
N
26
Wind Variable Wind from NW
Gusts 34 mph

Today
High -- | Low -- °F
--% Chance of Precip.
Yesterday
High -- | Low -- °F
Precip. -- in
7:20 AM 4:47 PM
Waxing Gibbous, 69% visible
Pressure 30.16 in
Visibility 9.0 miles
Clouds Overcast 600 ft
Windchill 18 °F
Dew Point 29 °F
Humidity 88%
Rainfall 0.00 in
Snow Depth Not available.
UV 0 out of 12
Pollen .10 out of 12
Air Quality Not available.
Flu Activity Not available.
METAR KDIK 282356Z AUTO 31023G30KT 9SM OVC006 00/M02 A3010 RMK AO2 PK WND 32030/2342 SLP213 T00001017 10067 21006 51042

More Conditions Fewer Conditions

Pressure 30.16 in
Visibility 9.0 miles
Clouds Overcast 600 ft
Windchill 18 °F
Dew Point 29 °F
Humidity 88%
Rainfall 0.00 in
Snow Depth Not available.
UV 0 out of 12
Pollen .10 out of 12
Air Quality Not available.
Flu Activity Not available.
METAR KDIK 282356Z AUTO 31023G30KT 9SM OVC006 00/M02 A3010 RMK AO2 PK WND 32030/2342 SLP213 T00001017 10067 21006 51042

More Conditions Fewer Conditions

10-Day Weather Forecast

Almanac

Astronomy

Jan. 28, 2015 Rise Set
Actual Time
Civil Twilight
Nautical Twilight
Astronomical Twilight
Moon
Length of Visible Light
Length of Day
Tomorrow will be .
, % of the Moon is Illuminated

Today's Extremes

State Highs State Lows

Community

WunderPhotos

Upload Photos

1,791,302 photos uploaded!

WunderBlogs® & News

Nearby

Air Quality

  Air Quality AQ Index Pollutant
Not available.

Snow Depth

Station Depth Elevation

Earthquake Activity

City Distance Mag. Time & Date
Minimum magnitude displayed is 2.5.

Coastal Water Temperatures

Place Temperature

Nearby Weather Stations